createdAt,value
2023-02-27T00:02:01.904Z,2.25
2023-02-27T00:05:03.497Z,3.13
2023-02-27T00:08:04.983Z,2.63
2023-02-27T00:11:06.462Z,3.33
2023-02-27T00:14:08.028Z,3.40
2023-02-27T00:17:09.547Z,4.38
2023-02-27T00:20:13.556Z,3.35
2023-02-27T00:23:17.890Z,2.33
2023-02-27T00:26:19.412Z,3.25
2023-02-27T00:29:20.926Z,2.45
2023-02-27T00:32:27.176Z,2.58
2023-02-27T00:35:28.777Z,2.28
2023-02-27T00:38:30.708Z,2.53
2023-02-27T00:41:32.429Z,2.13
2023-02-27T00:44:33.953Z,2.83
2023-02-27T00:47:36.213Z,3.22
2023-02-27T00:50:38.063Z,3.00
2023-02-27T00:53:39.635Z,2.05
2023-02-27T00:56:41.193Z,2.08
2023-02-27T00:59:42.742Z,2.10
2023-02-27T01:02:46.436Z,2.00
2023-02-27T01:05:48.021Z,3.03
2023-02-27T01:08:49.540Z,2.17
2023-02-27T01:11:52.125Z,1.83
2023-02-27T01:14:53.653Z,3.20
2023-02-27T01:17:55.195Z,3.63
2023-02-27T01:20:56.706Z,5.07
2023-02-27T01:23:58.334Z,2.00
2023-02-27T01:26:59.838Z,1.88
2023-02-27T01:30:01.362Z,2.45
2023-02-27T01:33:02.904Z,2.97
2023-02-27T01:36:04.810Z,1.92
2023-02-27T01:39:06.396Z,2.95
2023-02-27T01:42:23.532Z,1.73
2023-02-27T01:45:27.117Z,2.50
2023-02-27T01:48:36.344Z,2.17
2023-02-27T01:51:41.852Z,2.45
2023-02-27T01:54:43.455Z,1.88
2023-02-27T01:57:46.410Z,2.25
2023-02-27T02:00:50.241Z,2.22
2023-02-27T02:04:20.716Z,2.45
2023-02-27T02:07:22.407Z,2.35
2023-02-27T02:10:25.088Z,2.13
2023-02-27T02:13:27.520Z,2.05
2023-02-27T02:16:54.459Z,2.75
2023-02-27T02:20:23.870Z,3.10
2023-02-27T02:24:21.171Z,1.73
2023-02-27T02:27:41.176Z,2.15
2023-02-27T02:30:57.803Z,2.17
2023-02-27T02:34:49.366Z,3.33
2023-02-27T02:38:25.109Z,2.47
2023-02-27T02:41:47.648Z,2.38
2023-02-27T02:45:24.431Z,1.50
2023-02-27T02:48:36.408Z,1.83
2023-02-27T02:51:50.874Z,1.67
2023-02-27T02:55:09.791Z,1.55
2023-02-27T02:58:26.601Z,2.08
2023-02-27T03:01:32.129Z,2.20
2023-02-27T03:04:46.642Z,1.77
2023-02-27T03:08:02.312Z,2.80
2023-02-27T03:11:05.383Z,1.77
2023-02-27T03:14:21.328Z,1.50
2023-02-27T03:17:36.802Z,2.13
2023-02-27T03:20:43.972Z,1.50
2023-02-27T03:23:47.881Z,1.27
2023-02-27T03:26:52.378Z,1.88
2023-02-27T03:30:00.586Z,2.33
2023-02-27T03:33:08.141Z,3.75
2023-02-27T03:36:27.495Z,2.42
2023-02-27T03:39:52.863Z,2.13
2023-02-27T03:43:14.031Z,1.45
2023-02-27T03:46:28.910Z,1.90
2023-02-27T03:49:30.777Z,1.83
2023-02-27T03:52:32.610Z,1.83
2023-02-27T03:55:37.843Z,1.60
2023-02-27T03:58:40.147Z,1.35
2023-02-27T04:01:43.748Z,1.80
2023-02-27T04:04:45.538Z,1.73
2023-02-27T04:08:25.980Z,1.60
2023-02-27T04:12:09.940Z,1.95
2023-02-27T04:15:22.440Z,2.65
2023-02-27T04:18:45.666Z,1.42
2023-02-27T04:22:10.084Z,2.03
2023-02-27T04:25:23.879Z,1.80
2023-02-27T04:28:48.923Z,2.83
2023-02-27T04:32:21.607Z,2.17
2023-02-27T04:35:34.990Z,3.33
2023-02-27T04:39:06.199Z,2.00
2023-02-27T04:42:16.468Z,2.15
2023-02-27T04:45:22.813Z,2.83
2023-02-27T04:48:28.293Z,3.22
2023-02-27T04:51:44.735Z,2.47
2023-02-27T04:54:49.451Z,1.95
2023-02-27T04:58:00.900Z,1.60
2023-02-27T05:01:11.686Z,2.03
2023-02-27T05:04:18.511Z,2.45
2023-02-27T05:07:26.742Z,2.65
2023-02-27T05:10:47.512Z,1.88
2023-02-27T05:13:57.292Z,1.73
2023-02-27T05:17:18.101Z,2.50
2023-02-27T05:20:19.918Z,1.67
2023-02-27T05:23:43.662Z,1.88
2023-02-27T05:27:10.054Z,2.85
2023-02-27T05:30:26.405Z,1.95
2023-02-27T05:33:37.956Z,4.03
2023-02-27T05:37:10.405Z,2.83
2023-02-27T05:40:15.795Z,2.88
2023-02-27T05:43:34.556Z,2.45
2023-02-27T05:46:41.494Z,1.85
2023-02-27T05:49:57.105Z,2.17
2023-02-27T05:53:02.974Z,2.28
2023-02-27T05:56:06.502Z,2.13
2023-02-27T05:59:17.259Z,2.03
2023-02-27T06:02:18.923Z,2.75
2023-02-27T06:05:21.568Z,2.60
2023-02-27T06:08:23.832Z,2.05
2023-02-27T06:11:25.297Z,1.05
2023-02-27T06:14:27.784Z,1.83
2023-02-27T06:17:29.330Z,1.67
2023-02-27T06:20:30.818Z,1.80
2023-02-27T06:23:32.399Z,2.10
2023-02-27T06:26:33.896Z,1.55
2023-02-27T06:29:35.401Z,1.85
2023-02-27T06:32:36.864Z,1.58
2023-02-27T06:35:38.559Z,2.53
2023-02-27T06:38:40.385Z,2.00
2023-02-27T06:41:41.890Z,1.45
2023-02-27T06:44:43.381Z,2.38
2023-02-27T06:47:44.898Z,1.73
2023-02-27T06:50:50.517Z,3.88
2023-02-27T06:53:52.274Z,2.20
2023-02-27T06:56:53.960Z,1.75
2023-02-27T06:59:55.485Z,1.33
2023-02-27T07:02:57.080Z,1.83
2023-02-27T07:05:59.029Z,1.20
2023-02-27T07:09:06.318Z,2.65
2023-02-27T07:12:08.984Z,1.65
2023-02-27T07:15:11.034Z,2.08
2023-02-27T07:18:12.649Z,1.95
2023-02-27T07:21:15.520Z,1.95
2023-02-27T07:24:17.362Z,1.45
2023-02-27T07:27:18.856Z,2.40
2023-02-27T07:30:20.534Z,2.70
2023-02-27T07:33:22.329Z,1.77
2023-02-27T07:36:23.955Z,1.77
2023-02-27T07:39:25.529Z,1.30
2023-02-27T07:42:27.023Z,1.92
2023-02-27T07:45:29.643Z,1.02
2023-02-27T07:48:32.523Z,2.03
2023-02-27T07:51:34.054Z,2.60
2023-02-27T07:54:37.542Z,2.67
2023-02-27T07:57:39.653Z,2.47
2023-02-27T08:00:41.349Z,1.77
2023-02-27T08:03:42.861Z,1.95
2023-02-27T08:06:44.750Z,2.28
2023-02-27T08:09:46.242Z,2.60
2023-02-27T08:12:47.800Z,2.05
2023-02-27T08:15:49.348Z,2.00
2023-02-27T08:18:50.828Z,1.85
2023-02-27T08:21:52.401Z,2.67
2023-02-27T08:24:53.905Z,2.85
2023-02-27T08:27:55.595Z,2.80
2023-02-27T08:30:57.162Z,2.45
2023-02-27T08:34:09.436Z,3.05
2023-02-27T08:37:11.607Z,2.65
2023-02-27T08:40:13.240Z,3.80
2023-02-27T08:43:14.725Z,5.50
2023-02-27T08:46:16.347Z,8.18
2023-02-27T08:49:20.003Z,17.48
2023-02-27T08:52:24.956Z,18.85
2023-02-27T08:55:26.543Z,20.35
2023-02-27T08:58:28.550Z,22.23
2023-02-27T09:01:34.310Z,18.45
2023-02-27T09:04:36.044Z,21.40
2023-02-27T09:07:37.494Z,19.88
2023-02-27T09:10:39.082Z,21.30
2023-02-27T09:13:40.556Z,23.60
2023-02-27T09:16:42.046Z,21.52
2023-02-27T09:19:43.573Z,17.92
2023-02-27T09:22:45.037Z,20.13
2023-02-27T09:25:47.486Z,15.85
2023-02-27T09:28:49.536Z,16.40
2023-02-27T09:31:51.771Z,16.27
2023-02-27T09:34:53.739Z,15.77
2023-02-27T09:37:57.625Z,14.40
2023-02-27T09:40:59.524Z,16.23
2023-02-27T09:44:01.638Z,15.18
2023-02-27T09:47:06.026Z,15.52
2023-02-27T09:50:22.836Z,14.15
2023-02-27T09:53:31.365Z,14.13
2023-02-27T09:56:35.495Z,15.05
2023-02-27T09:59:46.347Z,11.63
2023-02-27T10:02:53.941Z,10.88
2023-02-27T10:06:10.393Z,14.02
2023-02-27T10:09:43.061Z,11.73
2023-02-27T10:13:04.415Z,10.82
2023-02-27T10:16:09.857Z,12.00
2023-02-27T10:19:17.023Z,11.52
2023-02-27T10:22:25.148Z,8.77
2023-02-27T10:25:31.766Z,9.95
2023-02-27T10:28:34.025Z,9.88
2023-02-27T10:31:36.289Z,8.60
2023-02-27T10:34:40.872Z,9.65
2023-02-27T10:37:49.414Z,9.20
2023-02-27T10:40:51.265Z,11.77
2023-02-27T10:43:58.026Z,9.52
2023-02-27T10:46:59.549Z,7.57
2023-02-27T10:50:01.106Z,9.05
2023-02-27T10:53:06.429Z,7.30
2023-02-27T10:56:14.520Z,6.90
2023-02-27T10:59:26.315Z,7.53
2023-02-27T11:02:40.414Z,6.75
2023-02-27T11:05:41.923Z,8.07
2023-02-27T11:08:43.783Z,5.25
2023-02-27T11:11:45.326Z,6.15
2023-02-27T11:14:58.304Z,6.00
2023-02-27T11:18:25.686Z,5.53
2023-02-27T11:24:33.053Z,5.85
2023-02-27T11:27:34.625Z,5.95
2023-02-27T11:30:37.191Z,4.50
2023-02-27T11:33:47.675Z,5.07
2023-02-27T11:36:54.108Z,4.72
2023-02-27T11:40:20.553Z,4.10
2023-02-27T11:43:21.944Z,5.47
2023-02-27T11:46:46.936Z,4.15
2023-02-27T11:50:28.473Z,7.43
2023-02-27T11:53:52.429Z,4.00
2023-02-27T11:56:58.752Z,4.38
2023-02-27T12:00:19.629Z,4.93
2023-02-27T12:03:24.655Z,5.75
2023-02-27T12:07:12.626Z,4.05
2023-02-27T12:10:20.137Z,3.80
2023-02-27T12:13:31.868Z,5.10
2023-02-27T12:16:36.509Z,3.55
2023-02-27T12:19:56.874Z,3.65
2023-02-27T12:23:01.797Z,4.38
2023-02-27T12:26:27.228Z,3.70
2023-02-27T12:29:34.488Z,4.10
2023-02-27T12:32:47.789Z,3.35
2023-02-27T12:35:58.128Z,4.68
2023-02-27T12:38:59.727Z,3.47
2023-02-27T12:42:07.223Z,4.00
2023-02-27T12:45:23.066Z,3.53
2023-02-27T12:48:51.563Z,5.20
2023-02-27T12:51:59.744Z,3.20
2023-02-27T12:55:17.639Z,3.05
2023-02-27T12:58:29.066Z,4.55
2023-02-27T13:01:48.537Z,3.47
2023-02-27T13:05:33.087Z,2.83
2023-02-27T13:09:10.315Z,3.28
2023-02-27T13:12:25.331Z,2.80
2023-02-27T13:15:50.961Z,3.75
2023-02-27T13:19:29.085Z,3.47
2023-02-27T13:22:39.689Z,3.33
2023-02-27T13:25:44.710Z,2.47
2023-02-27T13:28:46.688Z,5.15
2023-02-27T13:32:06.195Z,2.47
2023-02-27T13:35:32.192Z,3.88
2023-02-27T13:38:48.134Z,4.00
2023-02-27T13:41:49.634Z,2.92
2023-02-27T13:44:52.582Z,2.72
2023-02-27T13:47:55.535Z,4.10
2023-02-27T13:50:58.270Z,4.28
2023-02-27T13:54:19.891Z,3.75
2023-02-27T13:57:32.221Z,3.53
2023-02-27T14:00:37.730Z,2.67
2023-02-27T14:03:40.412Z,3.03
2023-02-27T14:06:45.224Z,2.75
2023-02-27T14:09:50.363Z,3.42
2023-02-27T14:12:52.966Z,2.35
2023-02-27T14:15:57.945Z,2.80
2023-02-27T14:19:01.414Z,2.92
2023-02-27T14:22:28.599Z,2.75
2023-02-27T14:25:41.181Z,2.50
2023-02-27T14:28:48.681Z,3.67
2023-02-27T14:31:52.886Z,2.58
2023-02-27T14:34:55.250Z,3.00
2023-02-27T14:37:59.667Z,2.53
2023-02-27T14:41:08.021Z,2.78
2023-02-27T14:44:20.048Z,3.38
2023-02-27T14:47:31.310Z,3.85
2023-02-27T14:50:37.267Z,2.53
2023-02-27T14:53:38.749Z,5.07
2023-02-27T14:56:41.854Z,15.95
2023-02-27T14:59:46.244Z,18.10
2023-02-27T15:02:47.813Z,19.25
2023-02-27T15:05:51.410Z,30.73
2023-02-27T15:08:55.127Z,36.85
2023-02-27T15:12:03.850Z,54.85
2023-02-27T15:15:07.729Z,58.25
2023-02-27T15:18:14.483Z,64.32
2023-02-27T15:21:16.594Z,68.90
2023-02-27T15:24:40.683Z,68.57
2023-02-27T15:27:49.266Z,79.80
2023-02-27T15:30:52.568Z,88.38
2023-02-27T15:33:54.656Z,95.82
2023-02-27T15:36:57.949Z,98.47
2023-02-27T15:40:01.285Z,109.13
2023-02-27T15:43:03.386Z,102.82
2023-02-27T15:46:05.155Z,104.50
2023-02-27T15:49:06.817Z,106.40
2023-02-27T15:52:24.050Z,106.45
2023-02-27T15:55:29.995Z,97.97
2023-02-27T15:58:37.560Z,97.20
2023-02-27T16:01:39.434Z,87.97
2023-02-27T16:04:41.043Z,87.20
2023-02-27T16:07:43.660Z,84.65
2023-02-27T16:10:46.603Z,76.95
2023-02-27T16:13:48.703Z,73.45
2023-02-27T16:16:55.072Z,69.70
2023-02-27T16:19:58.175Z,69.95
2023-02-27T16:23:05.166Z,62.28
2023-02-27T16:26:27.803Z,59.85
2023-02-27T16:29:35.692Z,69.07
2023-02-27T16:32:45.585Z,58.05
2023-02-27T16:35:47.687Z,55.85
2023-02-27T16:38:49.483Z,59.88
2023-02-27T16:41:55.159Z,53.13
2023-02-27T16:44:56.646Z,50.73
2023-02-27T16:48:00.412Z,44.90
2023-02-27T16:51:02.150Z,47.50
2023-02-27T16:54:03.849Z,45.33
2023-02-27T16:57:05.421Z,49.05
2023-02-27T17:00:07.896Z,44.67
2023-02-27T17:03:09.422Z,46.15
2023-02-27T17:06:12.419Z,43.15
2023-02-27T17:09:13.989Z,40.65
2023-02-27T17:12:15.622Z,44.35
2023-02-27T17:15:17.686Z,40.63
2023-02-27T17:18:19.971Z,43.22
2023-02-27T17:21:21.471Z,38.88
2023-02-27T17:24:23.224Z,40.95
2023-02-27T17:27:24.783Z,38.75
2023-02-27T17:30:26.443Z,38.00
2023-02-27T17:33:30.330Z,34.47
2023-02-27T17:36:32.191Z,36.20
2023-02-27T17:39:33.721Z,34.85
2023-02-27T17:42:36.493Z,36.72
2023-02-27T17:45:38.570Z,42.13
2023-02-27T17:48:40.059Z,36.88
2023-02-27T17:51:41.699Z,34.78
2023-02-27T17:54:43.485Z,31.88
2023-02-27T17:57:45.052Z,37.72
2023-02-27T18:00:46.655Z,31.55
2023-02-27T18:03:49.374Z,33.97
2023-02-27T18:06:50.974Z,32.08
2023-02-27T18:09:52.508Z,34.45
2023-02-27T18:12:54.015Z,37.67
2023-02-27T18:15:56.365Z,31.42
2023-02-27T18:18:58.073Z,32.45
2023-02-27T18:21:59.529Z,32.38
2023-02-27T18:25:01.097Z,33.22
2023-02-27T18:28:03.198Z,31.20
2023-02-27T18:31:04.975Z,28.00
2023-02-27T18:34:07.728Z,29.33
2023-02-27T18:37:10.315Z,26.80
2023-02-27T18:40:12.637Z,28.20
2023-02-27T18:43:14.199Z,26.95
2023-02-27T18:46:16.000Z,26.17
2023-02-27T18:49:17.498Z,26.35
2023-02-27T18:52:18.991Z,25.50
2023-02-27T18:55:20.803Z,25.60
2023-02-27T18:58:22.290Z,23.85
2023-02-27T19:01:25.365Z,24.08
2023-02-27T19:04:26.988Z,24.63
2023-02-27T19:07:29.796Z,23.48
2023-02-27T19:10:32.524Z,25.50
2023-02-27T19:13:34.082Z,21.73
2023-02-27T19:16:35.965Z,23.17
2023-02-27T19:19:37.612Z,22.05
2023-02-27T19:22:39.120Z,22.05
2023-02-27T19:25:41.953Z,20.58
2023-02-27T19:28:43.598Z,20.45
2023-02-27T19:31:45.357Z,22.75
2023-02-27T19:34:46.964Z,21.25
2023-02-27T19:37:54.062Z,21.38
2023-02-27T19:41:00.641Z,19.85
2023-02-27T19:47:04.178Z,16.27
2023-02-27T19:50:07.011Z,15.73
2023-02-27T19:53:08.520Z,16.38
2023-02-27T19:56:18.988Z,15.82
2023-02-27T19:59:21.927Z,16.45
2023-02-27T20:02:23.401Z,16.10
2023-02-27T20:05:25.019Z,15.45
2023-02-27T20:08:26.591Z,16.65
2023-02-27T20:11:31.675Z,16.33
2023-02-27T20:14:33.260Z,13.35
2023-02-27T20:17:35.280Z,16.33
2023-02-27T20:20:39.383Z,14.63
2023-02-27T20:23:43.056Z,15.05
2023-02-27T20:26:49.890Z,15.77
2023-02-27T20:29:54.538Z,13.70
2023-02-27T20:32:56.540Z,16.60
2023-02-27T20:35:58.174Z,14.15
2023-02-27T20:38:59.675Z,12.55
2023-02-27T20:42:01.436Z,12.48
2023-02-27T20:45:03.160Z,13.20
2023-02-27T20:48:05.292Z,11.98
2023-02-27T20:51:08.031Z,12.77
2023-02-27T20:54:13.448Z,12.00
2023-02-27T20:57:14.953Z,12.88
2023-02-27T21:00:16.770Z,13.30
2023-02-27T21:03:18.312Z,11.63
2023-02-27T21:06:19.923Z,13.82
2023-02-27T21:09:22.227Z,9.38
2023-02-27T21:12:23.785Z,11.15
2023-02-27T21:15:25.319Z,11.80
2023-02-27T21:18:26.832Z,12.15
2023-02-27T21:21:31.841Z,8.93
2023-02-27T21:24:33.853Z,13.73
2023-02-27T21:27:35.363Z,10.68
2023-02-27T21:30:37.504Z,10.32
2023-02-27T21:33:39.071Z,11.68
2023-02-27T21:36:42.897Z,9.57
2023-02-27T21:39:47.047Z,11.10
2023-02-27T21:42:49.549Z,10.07
2023-02-27T21:45:51.974Z,10.10
2023-02-27T21:48:53.527Z,9.98
2023-02-27T21:51:55.456Z,11.50
2023-02-27T21:54:57.502Z,9.95
2023-02-27T21:57:59.002Z,8.60
2023-02-27T22:01:00.600Z,9.15
2023-02-27T22:04:03.031Z,9.27
2023-02-27T22:07:04.771Z,10.05
2023-02-27T22:10:06.492Z,10.82
2023-02-27T22:13:08.345Z,9.18
2023-02-27T22:16:11.287Z,8.85
2023-02-27T22:19:19.507Z,8.68
2023-02-27T22:22:21.142Z,8.00
2023-02-27T22:25:22.748Z,9.48
2023-02-27T22:28:24.280Z,7.90
2023-02-27T22:31:29.344Z,7.43
2023-02-27T22:34:31.333Z,7.40
2023-02-27T22:37:33.750Z,7.65
2023-02-27T22:40:36.092Z,8.18
2023-02-27T22:43:39.628Z,7.72
2023-02-27T22:46:47.094Z,7.03
2023-02-27T22:49:52.278Z,6.70
2023-02-27T22:52:53.776Z,7.90
2023-02-27T22:55:56.452Z,6.00
2023-02-27T22:58:58.921Z,6.93
2023-02-27T23:02:00.669Z,7.07
2023-02-27T23:05:02.311Z,7.60
2023-02-27T23:08:03.837Z,6.38
2023-02-27T23:11:05.974Z,6.82
2023-02-27T23:14:07.959Z,6.80
2023-02-27T23:17:09.520Z,7.13
2023-02-27T23:20:11.596Z,6.95
2023-02-27T23:23:13.059Z,7.18
2023-02-27T23:26:14.562Z,8.73
2023-02-27T23:29:16.733Z,6.35
2023-02-27T23:32:18.309Z,6.80
2023-02-27T23:35:22.826Z,6.43
2023-02-27T23:38:25.677Z,6.00
2023-02-27T23:41:27.675Z,5.60
2023-02-27T23:44:29.332Z,6.15
2023-02-27T23:47:45.738Z,5.32
2023-02-27T23:50:47.882Z,5.15
2023-02-27T23:53:49.377Z,6.78
2023-02-27T23:56:51.306Z,5.53
2023-02-27T23:59:52.786Z,5.88
